Terminal Aerodrome Forecast
Issued by NWS Jackson, MS

Current Version | Previous Version | Text Only | Print | Product List | Glossary On
Versions: 1 2 3 4 5 6 7 8 9 10 11 12
000
FTUS44 KJAN 020520
TAFGWO
TAF
KGWO 020520Z 0206/0306 05004KT P6SM SCT060 BKN120 BKN250
     FM021000 VRB03KT 6SM BR HZ FEW120 BKN250
     FM021400 28005KT P6SM FEW060 SCT120 BKN250=

USA.gov is the U.S. government's official web portal to all federal, state and local government web resources and services.